createdAt,value
2019-04-06T00:00:25.332Z,79.74
2019-04-06T00:02:55.583Z,79.38
2019-04-06T00:05:25.700Z,79.40
2019-04-06T00:07:55.881Z,79.26
2019-04-06T00:10:26.040Z,79.34
2019-04-06T00:12:57.255Z,79.60
2019-04-06T00:15:27.398Z,79.41
2019-04-06T00:17:57.590Z,79.95
2019-04-06T00:20:27.723Z,79.91
2019-04-06T00:22:57.937Z,79.99
2019-04-06T00:25:28.087Z,80.33
2019-04-06T00:27:58.449Z,80.46
2019-04-06T00:30:31.187Z,80.73
2019-04-06T00:33:07.837Z,80.52
2019-04-06T00:35:38.077Z,80.45
2019-04-06T00:38:08.248Z,80.69
2019-04-06T00:40:38.495Z,81.07
2019-04-06T00:43:08.892Z,81.11
2019-04-06T00:45:39.217Z,81.43
2019-04-06T00:48:09.478Z,81.59
2019-04-06T00:50:39.650Z,82.09
2019-04-06T00:53:09.812Z,81.65
2019-04-06T00:55:39.989Z,81.39
2019-04-06T00:58:10.260Z,81.23
2019-04-06T01:00:40.486Z,81.12
2019-04-06T01:03:10.764Z,81.31
2019-04-06T01:05:40.903Z,81.25
2019-04-06T01:08:11.129Z,81.09
2019-04-06T01:10:41.748Z,81.29
2019-04-06T01:13:12.900Z,81.39
2019-04-06T01:15:43.171Z,81.58
2019-04-06T01:18:13.232Z,81.52
2019-04-06T01:20:43.367Z,81.26
2019-04-06T01:23:13.518Z,81.13
2019-04-06T01:25:43.705Z,81.90
2019-04-06T01:28:13.909Z,82.05
2019-04-06T01:30:44.061Z,81.63
2019-04-06T01:33:14.237Z,81.75
2019-04-06T01:35:44.405Z,81.69
2019-04-06T01:38:16.695Z,81.54
2019-04-06T01:40:46.948Z,81.48
2019-04-06T01:43:17.165Z,81.49
2019-04-06T01:45:47.413Z,81.51
2019-04-06T01:48:17.554Z,81.59
2019-04-06T01:50:47.774Z,81.61
2019-04-06T01:53:17.919Z,81.19
2019-04-06T01:55:49.181Z,81.16
2019-04-06T01:58:19.292Z,81.21
2019-04-06T02:01:02.970Z,81.15
2019-04-06T02:03:33.107Z,81.57
2019-04-06T02:06:03.861Z,81.29
2019-04-06T02:08:34.012Z,81.56
2019-04-06T02:11:04.532Z,81.07
2019-04-06T02:13:34.688Z,81.31
2019-04-06T02:16:06.227Z,81.61
2019-04-06T02:18:37.251Z,81.12
2019-04-06T02:21:07.413Z,80.93
2019-04-06T02:23:37.665Z,81.04
2019-04-06T02:26:07.788Z,80.89
2019-04-06T02:28:37.932Z,81.09
2019-04-06T02:31:27.062Z,81.22
2019-04-06T02:34:19.086Z,80.64
2019-04-06T02:37:14.211Z,80.83
2019-04-06T02:39:55.113Z,80.27
2019-04-06T02:42:40.617Z,80.47
2019-04-06T02:45:11.063Z,80.45
2019-04-06T02:47:41.201Z,80.51
2019-04-06T02:50:11.383Z,80.38
2019-04-06T02:52:41.560Z,80.40
2019-04-06T02:55:14.442Z,80.52
2019-04-06T02:57:44.593Z,80.43
2019-04-06T03:00:14.925Z,80.74
2019-04-06T03:02:45.060Z,81.20
2019-04-06T03:05:15.216Z,81.22
2019-04-06T03:07:45.386Z,80.72
2019-04-06T03:10:15.608Z,80.89
2019-04-06T03:12:45.778Z,80.97
2019-04-06T03:15:17.611Z,80.92
2019-04-06T03:17:47.781Z,81.00
2019-04-06T03:20:17.945Z,81.12
2019-04-06T03:22:48.124Z,81.20
2019-04-06T03:25:18.285Z,81.49
2019-04-06T03:27:48.536Z,81.90
2019-04-06T03:30:18.617Z,81.46
2019-04-06T03:32:49.820Z,81.18
2019-04-06T03:35:19.981Z,81.32
2019-04-06T03:37:50.179Z,81.67
2019-04-06T03:40:20.326Z,81.63
2019-04-06T03:42:50.524Z,81.74
2019-04-06T03:45:20.672Z,81.59
2019-04-06T03:47:50.882Z,81.60
2019-04-06T03:50:21.206Z,81.71
2019-04-06T03:52:51.625Z,82.01
2019-04-06T03:55:21.734Z,81.67
2019-04-06T03:57:51.867Z,81.12
2019-04-06T04:00:21.895Z,81.41
2019-04-06T04:02:52.263Z,81.07
2019-04-06T04:05:22.385Z,81.68
2019-04-06T04:07:55.748Z,81.31
2019-04-06T04:10:34.299Z,80.98
2019-04-06T04:13:05.218Z,80.77
2019-04-06T04:15:35.436Z,80.65
2019-04-06T04:18:06.035Z,81.90
2019-04-06T04:20:37.750Z,81.83
2019-04-06T04:23:08.136Z,81.61
2019-04-06T04:25:38.383Z,81.62
2019-04-06T04:28:08.553Z,81.62
2019-04-06T04:30:38.920Z,81.20
2019-04-06T04:33:09.064Z,81.01
2019-04-06T04:35:39.240Z,80.86
2019-04-06T04:38:09.643Z,81.24
2019-04-06T04:40:40.734Z,81.83
2019-04-06T04:43:11.135Z,81.61
2019-04-06T04:45:41.211Z,81.56
2019-04-06T04:48:11.489Z,81.55
2019-04-06T04:50:41.825Z,81.90
2019-04-06T04:53:12.085Z,81.59
2019-04-06T04:55:42.362Z,81.49
2019-04-06T04:58:12.564Z,81.49
2019-04-06T05:00:42.731Z,81.38
2019-04-06T05:03:12.884Z,81.92
2019-04-06T05:05:43.109Z,81.36
2019-04-06T05:08:13.343Z,81.20
2019-04-06T05:10:43.682Z,80.99
2019-04-06T05:13:13.934Z,80.75
2019-04-06T05:16:21.832Z,80.78
2019-04-06T05:18:52.082Z,80.87
2019-04-06T05:21:24.989Z,81.03
2019-04-06T05:23:55.166Z,80.84
2019-04-06T05:26:25.440Z,80.75
2019-04-06T05:28:55.587Z,80.96
2019-04-06T05:31:25.921Z,80.95
2019-04-06T05:33:56.105Z,81.41
2019-04-06T05:36:26.292Z,81.54
2019-04-06T05:38:56.463Z,81.65
2019-04-06T05:41:26.697Z,82.59
2019-04-06T05:43:56.793Z,82.58
2019-04-06T05:46:29.853Z,82.68
2019-04-06T05:48:59.954Z,82.92
2019-04-06T05:51:36.211Z,82.97
2019-04-06T05:54:06.448Z,82.59
2019-04-06T05:56:36.606Z,83.43
2019-04-06T05:59:10.057Z,82.65
2019-04-06T06:01:40.523Z,82.71
2019-04-06T06:04:10.796Z,82.63
2019-04-06T06:06:41.628Z,82.45
2019-04-06T06:09:13.622Z,81.71
2019-04-06T06:11:43.896Z,82.14
2019-04-06T06:14:14.369Z,81.83
2019-04-06T06:16:44.542Z,81.51
2019-04-06T06:19:15.139Z,81.63
2019-04-06T06:21:45.307Z,81.51
2019-04-06T06:24:15.506Z,81.90
2019-04-06T06:26:45.683Z,82.20
2019-04-06T06:29:15.822Z,81.85
2019-04-06T06:31:45.986Z,81.63
2019-04-06T06:34:16.090Z,81.38
2019-04-06T06:36:46.263Z,81.49
2019-04-06T06:39:16.533Z,81.21
2019-04-06T06:41:47.119Z,80.83
2019-04-06T06:44:19.224Z,81.17
2019-04-06T06:46:49.476Z,81.09
2019-04-06T06:49:19.647Z,81.26
2019-04-06T06:51:50.018Z,80.70
2019-04-06T06:54:20.162Z,80.83
2019-04-06T06:56:53.454Z,80.90
2019-04-06T06:59:23.643Z,81.83
2019-04-06T07:01:53.877Z,81.49
2019-04-06T07:04:24.058Z,81.23
2019-04-06T07:06:54.240Z,81.14
2019-04-06T07:09:24.384Z,80.04
2019-04-06T07:11:54.565Z,80.64
2019-04-06T07:14:24.693Z,80.21
2019-04-06T07:16:54.917Z,78.77
2019-04-06T07:19:25.104Z,79.07
2019-04-06T07:21:55.491Z,79.11
2019-04-06T07:24:25.759Z,77.98
2019-04-06T07:26:55.977Z,78.61
2019-04-06T07:29:26.126Z,78.06
2019-04-06T07:31:56.354Z,76.36
2019-04-06T07:34:26.525Z,78.03
2019-04-06T07:36:56.672Z,77.08
2019-04-06T07:39:26.902Z,76.70
2019-04-06T07:41:57.107Z,77.25
2019-04-06T07:44:27.342Z,75.34
2019-04-06T07:46:57.533Z,76.59
2019-04-06T07:49:31.293Z,75.66
2019-04-06T07:52:01.536Z,75.02
2019-04-06T07:54:31.705Z,75.32
2019-04-06T07:57:02.030Z,75.04
2019-04-06T07:59:32.197Z,75.67
2019-04-06T08:02:02.388Z,74.82
2019-04-06T08:04:32.720Z,75.48
2019-04-06T08:07:02.957Z,74.63
2019-04-06T08:09:33.155Z,75.91
2019-04-06T08:12:08.775Z,75.35
2019-04-06T08:14:39.261Z,75.29
2019-04-06T08:17:09.379Z,75.45
2019-04-06T08:19:39.571Z,75.67
2019-04-06T08:22:23.243Z,72.89
2019-04-06T08:24:53.563Z,73.23
2019-04-06T08:27:23.852Z,73.48
2019-04-06T08:29:54.020Z,72.25
2019-04-06T08:32:24.525Z,72.07
2019-04-06T08:34:54.767Z,71.85
2019-04-06T08:37:28.341Z,71.14
2019-04-06T08:39:58.702Z,70.29
2019-04-06T08:42:28.885Z,70.84
2019-04-06T08:44:59.217Z,72.53
2019-04-06T08:47:29.305Z,73.07
2019-04-06T08:49:59.599Z,72.69
2019-04-06T08:52:29.799Z,72.70
2019-04-06T08:55:00.000Z,71.33
2019-04-06T08:57:30.437Z,71.27
2019-04-06T09:00:01.822Z,72.96
2019-04-06T09:02:33.709Z,70.93
2019-04-06T09:05:06.198Z,71.20
2019-04-06T09:07:36.341Z,72.40
2019-04-06T09:10:06.648Z,70.90
2019-04-06T09:12:37.041Z,71.89
2019-04-06T09:15:07.844Z,71.59
2019-04-06T09:17:38.096Z,72.76
2019-04-06T09:20:08.639Z,71.04
2019-04-06T09:22:40.408Z,69.69
2019-04-06T09:25:10.611Z,71.31
2019-04-06T09:27:40.759Z,70.74
2019-04-06T09:30:10.919Z,69.93
2019-04-06T09:32:41.434Z,69.24
2019-04-06T09:35:13.278Z,69.63
2019-04-06T09:37:43.421Z,69.62
2019-04-06T09:40:13.827Z,67.96
2019-04-06T09:42:44.093Z,68.01
2019-04-06T09:45:32.053Z,67.32
2019-04-06T09:48:11.645Z,67.88
2019-04-06T09:51:13.058Z,68.30
2019-04-06T09:54:06.188Z,68.53
2019-04-06T09:56:54.918Z,68.05
2019-04-06T09:59:37.592Z,67.09
2019-04-06T10:02:29.981Z,66.57
2019-04-06T10:05:19.270Z,66.81
2019-04-06T10:08:12.880Z,66.74
2019-04-06T10:11:00.130Z,66.37
2019-04-06T10:13:58.043Z,65.48
2019-04-06T10:16:45.850Z,65.39
2019-04-06T10:19:43.806Z,68.11
2019-04-06T10:22:31.710Z,65.83
2019-04-06T10:25:35.845Z,65.03
2019-04-06T10:28:34.982Z,64.32
2019-04-06T10:31:29.932Z,65.28
2019-04-06T10:34:25.067Z,64.27
2019-04-06T10:37:18.589Z,64.69
2019-04-06T10:40:05.714Z,63.22
2019-04-06T10:42:53.714Z,64.10
2019-04-06T10:45:54.796Z,63.98
2019-04-06T10:48:33.942Z,64.65
2019-04-06T10:51:25.894Z,63.51
2019-04-06T10:54:14.015Z,63.25
2019-04-06T10:57:02.521Z,63.04
2019-04-06T10:59:59.902Z,63.03
2019-04-06T11:02:37.396Z,63.58
2019-04-06T11:05:38.764Z,63.49
2019-04-06T11:08:18.408Z,64.22
2019-04-06T11:11:20.625Z,63.10
2019-04-06T11:14:09.823Z,62.03
2019-04-06T11:16:59.028Z,62.16
2019-04-06T11:19:38.338Z,62.49
2019-04-06T11:22:30.485Z,63.17
2019-04-06T11:25:12.141Z,62.42
2019-04-06T11:27:52.320Z,63.35
2019-04-06T11:30:40.048Z,63.95
2019-04-06T11:33:41.212Z,62.95
2019-04-06T11:36:22.793Z,62.26
2019-04-06T11:39:18.088Z,62.27
2019-04-06T11:42:07.186Z,60.00
2019-04-06T11:44:56.419Z,61.28
2019-04-06T11:47:48.444Z,60.24
2019-04-06T11:50:38.871Z,61.29
2019-04-06T11:53:43.579Z,60.18
2019-04-06T11:56:33.007Z,59.65
2019-04-06T11:59:31.002Z,59.06
2019-04-06T12:02:39.013Z,59.82
2019-04-06T12:05:17.508Z,57.89
2019-04-06T12:08:11.511Z,58.37
2019-04-06T12:11:01.405Z,58.65
2019-04-06T12:13:55.970Z,58.79
2019-04-06T12:16:35.735Z,58.52
2019-04-06T12:19:31.009Z,57.81
2019-04-06T12:22:32.715Z,57.11
2019-04-06T12:25:11.232Z,56.91
2019-04-06T12:27:56.971Z,56.89
2019-04-06T12:30:50.556Z,56.83
2019-04-06T12:33:33.938Z,56.84
2019-04-06T12:36:26.331Z,56.80
2019-04-06T12:39:14.148Z,56.75
2019-04-06T12:42:02.003Z,57.13
2019-04-06T12:44:51.192Z,56.82
2019-04-06T12:47:43.433Z,57.50
2019-04-06T12:50:41.777Z,58.04
2019-04-06T12:53:37.721Z,56.89
2019-04-06T12:56:32.619Z,55.56
2019-04-06T12:59:31.167Z,55.54
2019-04-06T13:02:20.348Z,56.80
2019-04-06T13:05:13.325Z,57.01
2019-04-06T13:08:08.075Z,54.76
2019-04-06T13:10:47.267Z,55.01
2019-04-06T13:13:42.538Z,52.96
2019-04-06T13:16:30.585Z,52.58
2019-04-06T13:19:25.903Z,53.72
2019-04-06T13:22:27.181Z,54.36
2019-04-06T13:25:07.545Z,53.33
2019-04-06T13:28:09.043Z,53.00
2019-04-06T13:31:04.145Z,51.47
2019-04-06T13:33:53.611Z,52.22
2019-04-06T13:36:42.799Z,52.77
2019-04-06T13:39:37.844Z,51.15
2019-04-06T13:42:42.464Z,51.13
2019-04-06T13:45:26.044Z,51.70
2019-04-06T13:48:13.775Z,51.99
2019-04-06T13:51:18.309Z,51.89
2019-04-06T13:54:06.879Z,51.30
2019-04-06T13:57:00.909Z,50.27
2019-04-06T13:59:48.822Z,49.39
2019-04-06T14:02:29.372Z,50.16
2019-04-06T14:05:18.532Z,50.03
2019-04-06T14:07:55.422Z,48.64
2019-04-06T14:10:35.499Z,49.10
2019-04-06T14:13:27.809Z,49.88
2019-04-06T14:16:32.332Z,49.58
2019-04-06T14:19:19.626Z,49.43
2019-04-06T14:22:17.619Z,47.65
2019-04-06T14:25:01.516Z,47.20
2019-04-06T14:27:53.612Z,49.41
2019-04-06T14:30:51.693Z,46.54
2019-04-06T14:33:39.978Z,46.25
2019-04-06T14:36:21.296Z,47.13
2019-04-06T14:39:08.560Z,47.54
2019-04-06T14:41:50.129Z,46.80
2019-04-06T14:44:40.768Z,46.01
2019-04-06T14:47:36.019Z,45.88
2019-04-06T14:50:21.405Z,45.71
2019-04-06T14:53:17.254Z,44.36
2019-04-06T14:55:52.590Z,44.13
2019-04-06T14:58:38.408Z,43.82
2019-04-06T15:01:18.403Z,44.75
2019-04-06T15:04:07.147Z,45.28
2019-04-06T15:06:54.866Z,44.40
2019-04-06T15:09:46.760Z,43.95
2019-04-06T15:12:24.771Z,44.38
2019-04-06T15:15:14.423Z,43.71
2019-04-06T15:18:02.374Z,42.14
2019-04-06T15:20:52.718Z,42.31
2019-04-06T15:23:32.306Z,45.10
2019-04-06T15:26:18.308Z,43.31
2019-04-06T15:29:05.678Z,43.88
2019-04-06T15:31:53.538Z,42.38
2019-04-06T15:34:36.994Z,42.08
2019-04-06T15:37:19.836Z,42.17
2019-04-06T15:40:15.000Z,42.21
2019-04-06T15:43:02.911Z,41.36
2019-04-06T15:45:55.158Z,42.20
2019-04-06T15:48:43.016Z,43.75
2019-04-06T15:51:30.941Z,40.60
2019-04-06T15:54:22.861Z,41.19
2019-04-06T15:57:02.224Z,41.41
2019-04-06T15:59:57.356Z,39.08
2019-04-06T16:02:33.922Z,38.89
2019-04-06T16:05:26.367Z,40.23
2019-04-06T16:08:14.391Z,38.23
2019-04-06T16:11:06.666Z,38.08
2019-04-06T16:13:52.576Z,38.32
2019-04-06T16:16:42.134Z,38.13
2019-04-06T16:19:31.779Z,36.98
2019-04-06T16:22:26.988Z,36.41
2019-04-06T16:25:22.247Z,36.77
2019-04-06T16:28:07.262Z,38.11
2019-04-06T16:31:02.511Z,36.60
2019-04-06T16:33:48.326Z,36.90
2019-04-06T16:36:49.901Z,37.29
2019-04-06T16:39:54.100Z,37.54
2019-04-06T16:42:40.929Z,37.72
2019-04-06T16:45:23.088Z,37.36
2019-04-06T16:48:12.281Z,37.96
2019-04-06T16:51:00.111Z,37.14
2019-04-06T16:53:52.272Z,38.95
2019-04-06T16:56:45.193Z,37.42
2019-04-06T16:59:33.033Z,37.82
2019-04-06T17:02:24.449Z,38.64
2019-04-06T17:05:11.250Z,39.18
2019-04-06T17:07:49.922Z,38.38
2019-04-06T17:10:45.588Z,39.57
2019-04-06T17:13:38.625Z,39.53
2019-04-06T17:16:18.987Z,40.85
2019-04-06T17:19:07.089Z,41.82
2019-04-06T17:21:55.127Z,42.32
2019-04-06T17:24:42.113Z,42.94
2019-04-06T17:27:37.434Z,43.74
2019-04-06T17:30:23.332Z,44.81
2019-04-06T17:33:05.335Z,45.11
2019-04-06T17:35:53.391Z,45.89
2019-04-06T17:38:45.209Z,46.64
2019-04-06T17:41:52.479Z,46.77
2019-04-06T17:44:47.681Z,47.25
2019-04-06T17:47:49.096Z,47.68
2019-04-06T17:50:27.800Z,48.73
2019-04-06T17:53:29.015Z,48.99
2019-04-06T17:56:36.376Z,49.71
2019-04-06T17:59:24.772Z,49.84
2019-04-06T18:02:23.204Z,50.25
2019-04-06T18:05:24.438Z,51.88
2019-04-06T18:08:06.029Z,50.91
2019-04-06T18:10:47.294Z,50.88
2019-04-06T18:13:39.506Z,52.17
2019-04-06T18:16:09.742Z,52.73
2019-04-06T18:18:41.111Z,53.85
2019-04-06T18:21:11.335Z,53.37
2019-04-06T18:23:41.534Z,54.50
2019-04-06T18:26:11.756Z,54.39
2019-04-06T18:28:42.009Z,54.86
2019-04-06T18:31:43.637Z,54.50
2019-04-06T18:34:14.445Z,54.22
2019-04-06T18:37:00.368Z,54.20
2019-04-06T18:39:31.623Z,54.60
2019-04-06T18:42:01.903Z,54.48
2019-04-06T18:44:32.092Z,54.55
2019-04-06T18:47:02.345Z,54.81
2019-04-06T18:49:33.127Z,55.14
2019-04-06T18:52:06.748Z,55.40
2019-04-06T18:54:43.181Z,55.37
2019-04-06T18:57:16.147Z,55.53
2019-04-06T18:59:47.046Z,55.97
2019-04-06T19:02:18.004Z,56.06
2019-04-06T19:04:48.666Z,56.06
2019-04-06T19:07:19.314Z,56.10
2019-04-06T19:09:50.141Z,56.80
2019-04-06T19:12:21.153Z,56.33
2019-04-06T19:14:53.212Z,57.08
2019-04-06T19:17:23.932Z,56.82
2019-04-06T19:19:54.604Z,57.22
2019-04-06T19:22:25.179Z,58.00
2019-04-06T19:24:56.672Z,58.61
2019-04-06T19:27:27.454Z,58.14
2019-04-06T19:29:58.351Z,58.13
2019-04-06T19:32:29.618Z,58.11
2019-04-06T19:35:01.142Z,58.24
2019-04-06T19:37:35.160Z,57.71
2019-04-06T19:40:07.152Z,57.79
2019-04-06T19:42:38.953Z,57.86
2019-04-06T19:45:10.656Z,58.01
2019-04-06T19:47:41.150Z,57.82
2019-04-06T19:50:13.685Z,58.06
2019-04-06T19:52:44.194Z,58.27
2019-04-06T19:55:16.174Z,58.08
2019-04-06T19:57:50.681Z,57.97
2019-04-06T20:00:22.770Z,57.76
2019-04-06T20:02:53.149Z,57.63
2019-04-06T20:05:23.959Z,57.68
2019-04-06T20:07:58.378Z,57.66
2019-04-06T20:10:33.867Z,57.95
2019-04-06T20:13:04.114Z,58.04
2019-04-06T20:15:34.530Z,57.87
2019-04-06T20:18:04.961Z,57.62
2019-04-06T20:20:35.346Z,58.31
2019-04-06T20:23:06.295Z,57.45
2019-04-06T20:25:37.334Z,57.75
2019-04-06T20:28:07.885Z,57.55
2019-04-06T20:30:38.547Z,57.87
2019-04-06T20:33:09.694Z,57.66
2019-04-06T20:35:40.632Z,57.79
2019-04-06T20:38:11.927Z,57.72
2019-04-06T20:40:45.390Z,57.71
2019-04-06T20:43:16.370Z,57.80
2019-04-06T20:45:48.894Z,57.64
2019-04-06T20:48:19.473Z,57.10
2019-04-06T20:50:50.035Z,56.88
2019-04-06T20:53:20.352Z,56.19
2019-04-06T20:55:50.904Z,55.79
2019-04-06T20:58:21.234Z,55.85
2019-04-06T21:01:03.596Z,55.82
2019-04-06T21:03:36.806Z,56.19
2019-04-06T21:06:07.417Z,56.64
2019-04-06T21:08:37.532Z,56.18
2019-04-06T21:11:08.326Z,55.84
2019-04-06T21:13:39.035Z,55.89
2019-04-06T21:16:09.340Z,55.28
2019-04-06T21:18:40.012Z,55.26
2019-04-06T21:21:10.296Z,54.82
2019-04-06T21:23:40.430Z,55.30
2019-04-06T21:26:10.949Z,55.22
2019-04-06T21:28:41.140Z,56.07
2019-04-06T21:31:12.565Z,55.84
2019-04-06T21:33:45.037Z,55.05
2019-04-06T21:36:15.213Z,54.42
2019-04-06T21:38:45.586Z,54.81
2019-04-06T21:41:16.060Z,53.63
2019-04-06T21:43:46.278Z,53.79
2019-04-06T21:46:16.907Z,54.08
2019-04-06T21:48:47.252Z,54.23
2019-04-06T21:51:18.029Z,54.33
2019-04-06T21:53:48.424Z,54.44
2019-04-06T21:56:19.159Z,54.51
2019-04-06T21:58:49.418Z,54.56
2019-04-06T22:01:20.948Z,54.55
2019-04-06T22:03:52.719Z,54.61
2019-04-06T22:06:25.030Z,55.11
2019-04-06T22:08:55.163Z,54.50
2019-04-06T22:11:25.306Z,54.87
2019-04-06T22:13:55.489Z,54.97
2019-04-06T22:16:25.726Z,55.13
2019-04-06T22:18:56.432Z,55.11
2019-04-06T22:21:27.138Z,55.29
2019-04-06T22:23:57.892Z,55.66
2019-04-06T22:26:28.087Z,55.74
2019-04-06T22:28:58.314Z,56.09
2019-04-06T22:31:29.029Z,56.27
2019-04-06T22:33:59.447Z,56.27
2019-04-06T22:36:29.579Z,55.88
2019-04-06T22:38:59.769Z,55.90
2019-04-06T22:41:29.921Z,55.78
2019-04-06T22:44:00.711Z,55.93
2019-04-06T22:46:31.559Z,55.90
2019-04-06T22:49:01.848Z,55.77
2019-04-06T22:51:32.195Z,55.75
2019-04-06T22:54:02.538Z,55.93
2019-04-06T22:56:32.699Z,56.10
2019-04-06T22:59:04.832Z,56.28
2019-04-06T23:01:37.378Z,56.39
2019-04-06T23:04:47.327Z,56.61
2019-04-06T23:07:09.897Z,56.68
2019-04-06T23:09:40.232Z,56.63
2019-04-06T23:12:10.391Z,56.91
2019-04-06T23:14:40.587Z,56.46
2019-04-06T23:17:11.229Z,56.55
2019-04-06T23:19:41.950Z,56.63
2019-04-06T23:22:12.498Z,56.36
2019-04-06T23:24:43.206Z,56.64
2019-04-06T23:27:13.699Z,56.70
2019-04-06T23:29:44.058Z,56.62
2019-04-06T23:32:14.803Z,56.55
2019-04-06T23:34:45.049Z,56.31
2019-04-06T23:37:16.718Z,56.26
2019-04-06T23:39:46.990Z,56.36
2019-04-06T23:42:17.237Z,56.31
2019-04-06T23:44:47.782Z,56.33
2019-04-06T23:47:18.124Z,55.98
2019-04-06T23:49:48.280Z,56.13
2019-04-06T23:52:18.448Z,56.55
2019-04-06T23:54:48.733Z,57.97
2019-04-06T23:57:18.845Z,56.73
2019-04-06T23:59:49.113Z,56.75
